sensor_id;sensor_type;location;lat;lon;timestamp;temperature;humidity
7214;DHT22;3648;50.614;13.830;2022-10-16T00:01:05;13.60;1.00
7214;DHT22;3648;50.614;13.830;2022-10-16T00:03:32;13.60;1.00
7214;DHT22;3648;50.614;13.830;2022-10-16T00:06:00;13.60;1.00
7214;DHT22;3648;50.614;13.830;2022-10-16T00:08:27;13.60;1.00
7214;DHT22;3648;50.614;13.830;2022-10-16T00:10:59;13.60;1.00
7214;DHT22;3648;50.614;13.830;2022-10-16T00:13:26;13.60;1.00
7214;DHT22;3648;50.614;13.830;2022-10-16T00:15:55;13.60;1.00
7214;DHT22;3648;50.614;13.830;2022-10-16T00:18:24;13.60;1.00
7214;DHT22;3648;50.614;13.830;2022-10-16T00:20:52;13.60;1.00
7214;DHT22;3648;50.614;13.830;2022-10-16T00:23:19;13.60;1.00
7214;DHT22;3648;50.614;13.830;2022-10-16T00:25:54;13.60;1.00
7214;DHT22;3648;50.614;13.830;2022-10-16T00:28:22;13.60;1.00
7214;DHT22;3648;50.614;13.830;2022-10-16T00:30:49;13.60;1.00
7214;DHT22;3648;50.614;13.830;2022-10-16T00:33:16;13.60;1.00
7214;DHT22;3648;50.614;13.830;2022-10-16T00:35:44;13.60;1.00
7214;DHT22;3648;50.614;13.830;2022-10-16T00:38:11;13.60;1.00
7214;DHT22;3648;50.614;13.830;2022-10-16T00:40:39;13.50;1.00
7214;DHT22;3648;50.614;13.830;2022-10-16T00:43:12;13.50;1.00
7214;DHT22;3648;50.614;13.830;2022-10-16T00:45:40;13.50;1.00
7214;DHT22;3648;50.614;13.830;2022-10-16T00:48:11;13.50;1.00
7214;DHT22;3648;50.614;13.830;2022-10-16T00:50:40;13.40;1.00
7214;DHT22;3648;50.614;13.830;2022-10-16T00:53:11;13.40;1.00
7214;DHT22;3648;50.614;13.830;2022-10-16T00:55:39;13.40;1.00
7214;DHT22;3648;50.614;13.830;2022-10-16T00:58:06;13.40;1.00
7214;DHT22;3648;50.614;13.830;2022-10-16T01:00:34;13.40;1.00
7214;DHT22;3648;50.614;13.830;2022-10-16T01:03:02;13.40;1.00
7214;DHT22;3648;50.614;13.830;2022-10-16T01:05:33;13.40;1.00
7214;DHT22;3648;50.614;13.830;2022-10-16T01:08:08;13.40;1.00
7214;DHT22;3648;50.614;13.830;2022-10-16T01:10:40;13.40;1.00
7214;DHT22;3648;50.614;13.830;2022-10-16T01:13:11;13.50;1.00
7214;DHT22;3648;50.614;13.830;2022-10-16T01:15:44;13.60;1.00
7214;DHT22;3648;50.614;13.830;2022-10-16T01:18:17;13.60;1.00
7214;DHT22;3648;50.614;13.830;2022-10-16T01:20:49;13.60;1.00
7214;DHT22;3648;50.614;13.830;2022-10-16T01:23:35;13.70;1.00
7214;DHT22;3648;50.614;13.830;2022-10-16T01:26:20;13.70;1.00
7214;DHT22;3648;50.614;13.830;2022-10-16T01:28:56;13.80;1.00
7214;DHT22;3648;50.614;13.830;2022-10-16T01:31:27;13.80;1.00
7214;DHT22;3648;50.614;13.830;2022-10-16T01:34:01;13.80;1.00
7214;DHT22;3648;50.614;13.830;2022-10-16T01:36:37;13.80;1.00
7214;DHT22;3648;50.614;13.830;2022-10-16T01:39:07;13.80;1.00
7214;DHT22;3648;50.614;13.830;2022-10-16T01:41:39;13.80;1.00
7214;DHT22;3648;50.614;13.830;2022-10-16T01:44:11;13.80;1.00
7214;DHT22;3648;50.614;13.830;2022-10-16T01:46:43;13.80;1.00
7214;DHT22;3648;50.614;13.830;2022-10-16T01:49:12;13.70;1.00
7214;DHT22;3648;50.614;13.830;2022-10-16T01:51:41;13.80;1.00
7214;DHT22;3648;50.614;13.830;2022-10-16T01:54:09;13.80;1.00
7214;DHT22;3648;50.614;13.830;2022-10-16T01:56:39;13.80;1.00
7214;DHT22;3648;50.614;13.830;2022-10-16T01:59:11;13.80;1.00
7214;DHT22;3648;50.614;13.830;2022-10-16T02:01:41;13.80;1.00
7214;DHT22;3648;50.614;13.830;2022-10-16T02:04:13;13.80;1.00
7214;DHT22;3648;50.614;13.830;2022-10-16T02:06:42;13.80;1.00
7214;DHT22;3648;50.614;13.830;2022-10-16T02:09:09;13.90;1.00
7214;DHT22;3648;50.614;13.830;2022-10-16T02:11:36;13.80;1.00
7214;DHT22;3648;50.614;13.830;2022-10-16T02:14:05;13.90;1.00
7214;DHT22;3648;50.614;13.830;2022-10-16T02:16:38;13.90;1.00
7214;DHT22;3648;50.614;13.830;2022-10-16T02:19:06;13.80;1.00
7214;DHT22;3648;50.614;13.830;2022-10-16T02:21:36;13.90;1.00
7214;DHT22;3648;50.614;13.830;2022-10-16T02:24:12;13.90;1.00
7214;DHT22;3648;50.614;13.830;2022-10-16T02:26:45;13.90;1.00
7214;DHT22;3648;50.614;13.830;2022-10-16T02:29:17;13.90;1.00
7214;DHT22;3648;50.614;13.830;2022-10-16T02:31:50;13.90;1.00
7214;DHT22;3648;50.614;13.830;2022-10-16T02:34:18;13.90;1.00
7214;DHT22;3648;50.614;13.830;2022-10-16T02:36:48;13.90;1.00
7214;DHT22;3648;50.614;13.830;2022-10-16T02:39:17;13.90;1.00
7214;DHT22;3648;50.614;13.830;2022-10-16T02:41:45;13.90;1.00
7214;DHT22;3648;50.614;13.830;2022-10-16T02:44:12;14.00;1.00
7214;DHT22;3648;50.614;13.830;2022-10-16T02:46:39;14.00;1.00
7214;DHT22;3648;50.614;13.830;2022-10-16T02:49:07;14.00;1.00
7214;DHT22;3648;50.614;13.830;2022-10-16T02:51:34;14.00;1.00
7214;DHT22;3648;50.614;13.830;2022-10-16T02:54:01;14.00;1.00
7214;DHT22;3648;50.614;13.830;2022-10-16T02:56:28;14.00;1.00
7214;DHT22;3648;50.614;13.830;2022-10-16T02:58:56;14.10;1.00
7214;DHT22;3648;50.614;13.830;2022-10-16T03:01:24;14.10;1.00
7214;DHT22;3648;50.614;13.830;2022-10-16T03:03:50;14.10;1.00
7214;DHT22;3648;50.614;13.830;2022-10-16T03:06:19;14.10;1.00
7214;DHT22;3648;50.614;13.830;2022-10-16T03:08:46;14.10;1.00
7214;DHT22;3648;50.614;13.830;2022-10-16T03:11:13;14.10;1.00
7214;DHT22;3648;50.614;13.830;2022-10-16T03:13:39;14.10;1.00
7214;DHT22;3648;50.614;13.830;2022-10-16T03:16:07;14.10;1.00
7214;DHT22;3648;50.614;13.830;2022-10-16T03:18:33;14.20;1.00
7214;DHT22;3648;50.614;13.830;2022-10-16T03:21:00;14.10;1.00
7214;DHT22;3648;50.614;13.830;2022-10-16T03:23:29;14.20;1.00
7214;DHT22;3648;50.614;13.830;2022-10-16T03:25:56;14.10;1.00
7214;DHT22;3648;50.614;13.830;2022-10-16T03:28:23;14.10;1.00
7214;DHT22;3648;50.614;13.830;2022-10-16T03:30:50;14.10;1.00
7214;DHT22;3648;50.614;13.830;2022-10-16T03:33:16;14.10;1.00
7214;DHT22;3648;50.614;13.830;2022-10-16T03:35:50;14.10;1.00
7214;DHT22;3648;50.614;13.830;2022-10-16T03:38:17;14.10;1.00
7214;DHT22;3648;50.614;13.830;2022-10-16T03:40:46;14.10;1.00
7214;DHT22;3648;50.614;13.830;2022-10-16T03:43:13;14.10;1.00
7214;DHT22;3648;50.614;13.830;2022-10-16T03:45:40;14.00;1.00
7214;DHT22;3648;50.614;13.830;2022-10-16T03:48:07;14.10;1.00
7214;DHT22;3648;50.614;13.830;2022-10-16T03:50:33;14.00;1.00
7214;DHT22;3648;50.614;13.830;2022-10-16T03:53:00;14.00;1.00
7214;DHT22;3648;50.614;13.830;2022-10-16T03:55:27;14.00;1.00
7214;DHT22;3648;50.614;13.830;2022-10-16T03:57:55;14.00;1.00
7214;DHT22;3648;50.614;13.830;2022-10-16T04:00:22;14.10;1.00
7214;DHT22;3648;50.614;13.830;2022-10-16T04:02:49;14.00;1.00
7214;DHT22;3648;50.614;13.830;2022-10-16T04:05:16;14.00;1.00
7214;DHT22;3648;50.614;13.830;2022-10-16T04:07:43;14.00;1.00
7214;DHT22;3648;50.614;13.830;2022-10-16T04:10:10;14.00;1.00
7214;DHT22;3648;50.614;13.830;2022-10-16T04:12:37;14.00;1.00
7214;DHT22;3648;50.614;13.830;2022-10-16T04:15:06;13.90;1.00
7214;DHT22;3648;50.614;13.830;2022-10-16T04:17:33;13.90;1.00
7214;DHT22;3648;50.614;13.830;2022-10-16T04:20:00;13.90;1.00
7214;DHT22;3648;50.614;13.830;2022-10-16T04:22:27;14.00;1.00
7214;DHT22;3648;50.614;13.830;2022-10-16T04:24:54;13.90;1.00
7214;DHT22;3648;50.614;13.830;2022-10-16T04:27:20;13.90;1.00
7214;DHT22;3648;50.614;13.830;2022-10-16T04:29:47;13.90;1.00
7214;DHT22;3648;50.614;13.830;2022-10-16T04:32:16;13.90;1.00
7214;DHT22;3648;50.614;13.830;2022-10-16T04:34:42;14.00;1.00
7214;DHT22;3648;50.614;13.830;2022-10-16T04:37:09;13.90;1.00
7214;DHT22;3648;50.614;13.830;2022-10-16T04:39:36;14.00;1.00
7214;DHT22;3648;50.614;13.830;2022-10-16T04:42:03;14.00;1.00
7214;DHT22;3648;50.614;13.830;2022-10-16T04:44:30;14.00;1.00
7214;DHT22;3648;50.614;13.830;2022-10-16T04:46:57;14.00;1.00
7214;DHT22;3648;50.614;13.830;2022-10-16T04:49:25;14.00;1.00
7214;DHT22;3648;50.614;13.830;2022-10-16T04:51:52;14.00;1.00
7214;DHT22;3648;50.614;13.830;2022-10-16T04:54:19;14.00;1.00
7214;DHT22;3648;50.614;13.830;2022-10-16T04:56:46;14.10;1.00
7214;DHT22;3648;50.614;13.830;2022-10-16T04:59:15;14.00;1.00
7214;DHT22;3648;50.614;13.830;2022-10-16T05:01:43;14.10;1.00
7214;DHT22;3648;50.614;13.830;2022-10-16T05:04:10;14.10;1.00
7214;DHT22;3648;50.614;13.830;2022-10-16T05:06:38;14.10;1.00
7214;DHT22;3648;50.614;13.830;2022-10-16T05:09:06;14.10;1.00
7214;DHT22;3648;50.614;13.830;2022-10-16T05:11:33;14.10;1.00
7214;DHT22;3648;50.614;13.830;2022-10-16T05:14:00;14.10;1.00
7214;DHT22;3648;50.614;13.830;2022-10-16T05:16:27;14.10;1.00
7214;DHT22;3648;50.614;13.830;2022-10-16T05:18:54;14.10;1.00
7214;DHT22;3648;50.614;13.830;2022-10-16T05:21:22;14.10;1.00
7214;DHT22;3648;50.614;13.830;2022-10-16T05:23:50;14.10;1.00
7214;DHT22;3648;50.614;13.830;2022-10-16T05:26:17;14.00;1.00
7214;DHT22;3648;50.614;13.830;2022-10-16T05:28:44;14.00;1.00
7214;DHT22;3648;50.614;13.830;2022-10-16T05:31:11;14.00;1.00
7214;DHT22;3648;50.614;13.830;2022-10-16T05:33:38;14.10;1.00
7214;DHT22;3648;50.614;13.830;2022-10-16T05:36:06;14.00;1.00
7214;DHT22;3648;50.614;13.830;2022-10-16T05:38:34;14.00;1.00
7214;DHT22;3648;50.614;13.830;2022-10-16T05:41:03;14.00;1.00
7214;DHT22;3648;50.614;13.830;2022-10-16T05:43:30;14.10;1.00
7214;DHT22;3648;50.614;13.830;2022-10-16T05:46:02;14.00;1.00
7214;DHT22;3648;50.614;13.830;2022-10-16T05:48:29;14.10;1.00
7214;DHT22;3648;50.614;13.830;2022-10-16T05:50:57;14.10;1.00
7214;DHT22;3648;50.614;13.830;2022-10-16T05:53:25;14.10;1.00
7214;DHT22;3648;50.614;13.830;2022-10-16T05:55:52;14.10;1.00
7214;DHT22;3648;50.614;13.830;2022-10-16T05:58:21;14.20;1.00
7214;DHT22;3648;50.614;13.830;2022-10-16T06:00:54;14.20;1.00
7214;DHT22;3648;50.614;13.830;2022-10-16T06:03:22;14.20;1.00
7214;DHT22;3648;50.614;13.830;2022-10-16T06:05:49;14.20;1.00
7214;DHT22;3648;50.614;13.830;2022-10-16T06:08:16;14.30;1.00
7214;DHT22;3648;50.614;13.830;2022-10-16T06:10:44;14.30;1.00
7214;DHT22;3648;50.614;13.830;2022-10-16T06:13:11;14.30;1.00
7214;DHT22;3648;50.614;13.830;2022-10-16T06:15:41;14.30;1.00
7214;DHT22;3648;50.614;13.830;2022-10-16T06:18:09;14.40;1.00
7214;DHT22;3648;50.614;13.830;2022-10-16T06:20:36;14.40;1.00
7214;DHT22;3648;50.614;13.830;2022-10-16T06:23:03;14.50;1.00
7214;DHT22;3648;50.614;13.830;2022-10-16T06:25:30;14.50;1.00
7214;DHT22;3648;50.614;13.830;2022-10-16T06:27:58;14.50;1.00
7214;DHT22;3648;50.614;13.830;2022-10-16T06:30:25;14.60;1.00
7214;DHT22;3648;50.614;13.830;2022-10-16T06:32:53;14.60;1.00
7214;DHT22;3648;50.614;13.830;2022-10-16T06:35:21;14.60;1.00
7214;DHT22;3648;50.614;13.830;2022-10-16T06:37:48;14.70;1.00
7214;DHT22;3648;50.614;13.830;2022-10-16T06:40:15;14.70;1.00
7214;DHT22;3648;50.614;13.830;2022-10-16T06:42:42;14.70;1.00
7214;DHT22;3648;50.614;13.830;2022-10-16T06:45:09;14.70;1.00
7214;DHT22;3648;50.614;13.830;2022-10-16T06:47:36;14.70;1.00
7214;DHT22;3648;50.614;13.830;2022-10-16T06:50:06;14.80;1.00
7214;DHT22;3648;50.614;13.830;2022-10-16T06:52:34;14.80;1.00
7214;DHT22;3648;50.614;13.830;2022-10-16T06:55:01;14.90;1.00
7214;DHT22;3648;50.614;13.830;2022-10-16T06:57:28;14.90;1.00
7214;DHT22;3648;50.614;13.830;2022-10-16T06:59:55;14.90;1.00
7214;DHT22;3648;50.614;13.830;2022-10-16T07:02:23;14.90;1.00
7214;DHT22;3648;50.614;13.830;2022-10-16T07:04:50;14.90;1.00
7214;DHT22;3648;50.614;13.830;2022-10-16T07:07:18;14.90;1.00
7214;DHT22;3648;50.614;13.830;2022-10-16T07:09:45;14.90;1.00
7214;DHT22;3648;50.614;13.830;2022-10-16T07:12:12;15.00;1.00
7214;DHT22;3648;50.614;13.830;2022-10-16T07:14:40;15.00;1.00
7214;DHT22;3648;50.614;13.830;2022-10-16T07:17:08;15.00;1.00
7214;DHT22;3648;50.614;13.830;2022-10-16T07:19:35;15.00;1.00
7214;DHT22;3648;50.614;13.830;2022-10-16T07:22:02;15.00;1.00
7214;DHT22;3648;50.614;13.830;2022-10-16T07:24:31;15.00;1.00
7214;DHT22;3648;50.614;13.830;2022-10-16T07:26:59;15.00;1.00
7214;DHT22;3648;50.614;13.830;2022-10-16T07:29:26;15.00;1.00
7214;DHT22;3648;50.614;13.830;2022-10-16T07:31:53;15.10;1.00
7214;DHT22;3648;50.614;13.830;2022-10-16T07:34:21;15.10;1.00
7214;DHT22;3648;50.614;13.830;2022-10-16T07:36:48;15.10;1.00
7214;DHT22;3648;50.614;13.830;2022-10-16T07:39:16;15.10;1.00
7214;DHT22;3648;50.614;13.830;2022-10-16T07:41:45;15.20;1.00
7214;DHT22;3648;50.614;13.830;2022-10-16T07:44:12;15.20;1.00
7214;DHT22;3648;50.614;13.830;2022-10-16T07:46:39;15.30;1.00
7214;DHT22;3648;50.614;13.830;2022-10-16T07:49:06;15.30;1.00
7214;DHT22;3648;50.614;13.830;2022-10-16T07:51:34;15.50;1.00
7214;DHT22;3648;50.614;13.830;2022-10-16T07:54:01;15.60;1.00
7214;DHT22;3648;50.614;13.830;2022-10-16T07:56:30;15.90;1.00
7214;DHT22;3648;50.614;13.830;2022-10-16T07:59:00;16.20;1.00
7214;DHT22;3648;50.614;13.830;2022-10-16T08:01:27;16.40;1.00
7214;DHT22;3648;50.614;13.830;2022-10-16T08:03:54;16.70;1.00
7214;DHT22;3648;50.614;13.830;2022-10-16T08:06:22;16.90;1.00
7214;DHT22;3648;50.614;13.830;2022-10-16T08:08:50;17.00;1.00
7214;DHT22;3648;50.614;13.830;2022-10-16T08:11:18;17.10;1.00
7214;DHT22;3648;50.614;13.830;2022-10-16T08:13:45;17.20;1.00
7214;DHT22;3648;50.614;13.830;2022-10-16T08:16:14;17.10;1.00
7214;DHT22;3648;50.614;13.830;2022-10-16T08:18:41;17.20;1.00
7214;DHT22;3648;50.614;13.830;2022-10-16T08:21:12;17.10;1.00
7214;DHT22;3648;50.614;13.830;2022-10-16T08:23:40;17.10;1.00
7214;DHT22;3648;50.614;13.830;2022-10-16T08:26:08;17.20;1.00
7214;DHT22;3648;50.614;13.830;2022-10-16T08:28:35;17.20;1.00
7214;DHT22;3648;50.614;13.830;2022-10-16T08:31:08;17.10;1.00
7214;DHT22;3648;50.614;13.830;2022-10-16T08:33:37;17.10;1.00
7214;DHT22;3648;50.614;13.830;2022-10-16T08:36:05;17.10;1.00
7214;DHT22;3648;50.614;13.830;2022-10-16T08:38:33;17.20;1.00
7214;DHT22;3648;50.614;13.830;2022-10-16T08:41:17;17.10;1.00
7214;DHT22;3648;50.614;13.830;2022-10-16T08:44:05;17.10;1.00
7214;DHT22;3648;50.614;13.830;2022-10-16T08:46:41;17.10;1.00
7214;DHT22;3648;50.614;13.830;2022-10-16T08:49:13;17.10;1.00
7214;DHT22;3648;50.614;13.830;2022-10-16T08:51:40;17.10;1.00
7214;DHT22;3648;50.614;13.830;2022-10-16T08:54:21;17.10;1.00
7214;DHT22;3648;50.614;13.830;2022-10-16T08:56:50;17.20;1.00
7214;DHT22;3648;50.614;13.830;2022-10-16T08:59:18;17.20;1.00
7214;DHT22;3648;50.614;13.830;2022-10-16T09:01:46;17.20;1.00
7214;DHT22;3648;50.614;13.830;2022-10-16T09:07:29;17.30;1.00
7214;DHT22;3648;50.614;13.830;2022-10-16T09:10:16;17.30;1.00
7214;DHT22;3648;50.614;13.830;2022-10-16T09:12:51;17.40;1.00
7214;DHT22;3648;50.614;13.830;2022-10-16T09:15:26;17.40;1.00
7214;DHT22;3648;50.614;13.830;2022-10-16T09:17:59;17.40;1.00
7214;DHT22;3648;50.614;13.830;2022-10-16T09:20:34;17.40;1.00
7214;DHT22;3648;50.614;13.830;2022-10-16T09:23:16;17.50;1.00
7214;DHT22;3648;50.614;13.830;2022-10-16T09:25:45;17.50;1.00
7214;DHT22;3648;50.614;13.830;2022-10-16T09:28:13;17.60;1.00
7214;DHT22;3648;50.614;13.830;2022-10-16T09:30:40;17.60;1.00
7214;DHT22;3648;50.614;13.830;2022-10-16T09:33:09;17.60;1.00
7214;DHT22;3648;50.614;13.830;2022-10-16T09:35:38;17.60;1.00
7214;DHT22;3648;50.614;13.830;2022-10-16T09:38:07;17.70;1.00
7214;DHT22;3648;50.614;13.830;2022-10-16T09:40:38;17.70;1.00
7214;DHT22;3648;50.614;13.830;2022-10-16T09:43:19;17.80;1.00
7214;DHT22;3648;50.614;13.830;2022-10-16T09:45:54;17.90;1.00
7214;DHT22;3648;50.614;13.830;2022-10-16T09:48:22;18.00;1.00
7214;DHT22;3648;50.614;13.830;2022-10-16T09:50:56;18.10;1.00
7214;DHT22;3648;50.614;13.830;2022-10-16T09:53:23;18.20;1.00
7214;DHT22;3648;50.614;13.830;2022-10-16T09:55:52;18.30;1.00
7214;DHT22;3648;50.614;13.830;2022-10-16T09:58:21;18.30;1.00
7214;DHT22;3648;50.614;13.830;2022-10-16T10:00:50;18.50;1.00
7214;DHT22;3648;50.614;13.830;2022-10-16T10:03:34;18.60;1.00
7214;DHT22;3648;50.614;13.830;2022-10-16T10:06:06;18.80;1.00
7214;DHT22;3648;50.614;13.830;2022-10-16T10:08:33;18.90;1.00
7214;DHT22;3648;50.614;13.830;2022-10-16T10:11:02;19.00;1.00
7214;DHT22;3648;50.614;13.830;2022-10-16T10:13:30;19.10;1.00
7214;DHT22;3648;50.614;13.830;2022-10-16T10:15:57;19.10;1.00
7214;DHT22;3648;50.614;13.830;2022-10-16T10:18:24;19.20;1.00
7214;DHT22;3648;50.614;13.830;2022-10-16T10:20:58;19.40;1.00
7214;DHT22;3648;50.614;13.830;2022-10-16T10:23:27;19.50;1.00
7214;DHT22;3648;50.614;13.830;2022-10-16T10:25:59;19.50;1.00
7214;DHT22;3648;50.614;13.830;2022-10-16T10:28:53;19.50;1.00
7214;DHT22;3648;50.614;13.830;2022-10-16T10:31:26;19.50;1.00
7214;DHT22;3648;50.614;13.830;2022-10-16T10:33:59;19.60;1.00
7214;DHT22;3648;50.614;13.830;2022-10-16T10:36:30;19.60;1.00
7214;DHT22;3648;50.614;13.830;2022-10-16T10:39:01;19.60;1.00
7214;DHT22;3648;50.614;13.830;2022-10-16T10:42:07;19.60;1.00
7214;DHT22;3648;50.614;13.830;2022-10-16T10:45:02;19.60;1.00
7214;DHT22;3648;50.614;13.830;2022-10-16T10:47:41;19.50;1.00
7214;DHT22;3648;50.614;13.830;2022-10-16T10:50:18;19.50;1.00
7214;DHT22;3648;50.614;13.830;2022-10-16T10:52:59;19.50;1.00
7214;DHT22;3648;50.614;13.830;2022-10-16T10:55:37;19.50;1.00
7214;DHT22;3648;50.614;13.830;2022-10-16T11:01:17;19.50;1.00
7214;DHT22;3648;50.614;13.830;2022-10-16T11:03:58;19.50;1.00
7214;DHT22;3648;50.614;13.830;2022-10-16T11:06:30;19.50;1.00
7214;DHT22;3648;50.614;13.830;2022-10-16T11:09:03;19.60;1.00
7214;DHT22;3648;50.614;13.830;2022-10-16T11:11:38;19.60;1.00
7214;DHT22;3648;50.614;13.830;2022-10-16T11:14:14;19.70;1.00
7214;DHT22;3648;50.614;13.830;2022-10-16T11:16:50;19.80;1.00
7214;DHT22;3648;50.614;13.830;2022-10-16T11:19:27;19.90;1.00
7214;DHT22;3648;50.614;13.830;2022-10-16T11:22:01;20.00;1.00
7214;DHT22;3648;50.614;13.830;2022-10-16T11:24:36;20.00;1.00
7214;DHT22;3648;50.614;13.830;2022-10-16T11:27:09;20.10;1.00
7214;DHT22;3648;50.614;13.830;2022-10-16T11:29:47;20.10;1.00
7214;DHT22;3648;50.614;13.830;2022-10-16T11:32:22;20.10;1.00
7214;DHT22;3648;50.614;13.830;2022-10-16T11:34:53;20.20;1.00
7214;DHT22;3648;50.614;13.830;2022-10-16T11:37:27;20.30;1.00
7214;DHT22;3648;50.614;13.830;2022-10-16T11:40:03;20.40;1.00
7214;DHT22;3648;50.614;13.830;2022-10-16T11:42:33;20.50;1.00
7214;DHT22;3648;50.614;13.830;2022-10-16T11:45:12;20.60;1.00
7214;DHT22;3648;50.614;13.830;2022-10-16T11:47:53;20.70;1.00
7214;DHT22;3648;50.614;13.830;2022-10-16T11:50:25;20.80;1.00
7214;DHT22;3648;50.614;13.830;2022-10-16T11:53:00;20.90;1.00
7214;DHT22;3648;50.614;13.830;2022-10-16T11:55:32;20.90;1.00
7214;DHT22;3648;50.614;13.830;2022-10-16T11:58:03;20.80;1.00
7214;DHT22;3648;50.614;13.830;2022-10-16T12:00:37;20.80;1.00
7214;DHT22;3648;50.614;13.830;2022-10-16T12:03:15;20.80;1.00
7214;DHT22;3648;50.614;13.830;2022-10-16T12:05:55;20.90;1.00
7214;DHT22;3648;50.614;13.830;2022-10-16T12:08:25;21.00;1.00
7214;DHT22;3648;50.614;13.830;2022-10-16T12:10:53;21.10;1.00
7214;DHT22;3648;50.614;13.830;2022-10-16T12:13:34;21.20;1.00
7214;DHT22;3648;50.614;13.830;2022-10-16T12:16:22;21.20;1.00
7214;DHT22;3648;50.614;13.830;2022-10-16T12:19:09;21.10;1.00
7214;DHT22;3648;50.614;13.830;2022-10-16T12:21:37;21.00;1.00
7214;DHT22;3648;50.614;13.830;2022-10-16T12:24:05;21.00;1.00
7214;DHT22;3648;50.614;13.830;2022-10-16T12:26:34;21.00;1.00
7214;DHT22;3648;50.614;13.830;2022-10-16T12:29:14;20.90;1.00
7214;DHT22;3648;50.614;13.830;2022-10-16T12:31:45;20.90;1.00
7214;DHT22;3648;50.614;13.830;2022-10-16T12:34:22;20.90;1.00
7214;DHT22;3648;50.614;13.830;2022-10-16T12:36:50;21.00;1.00
7214;DHT22;3648;50.614;13.830;2022-10-16T12:39:21;20.90;1.00
7214;DHT22;3648;50.614;13.830;2022-10-16T12:42:00;20.90;1.00
7214;DHT22;3648;50.614;13.830;2022-10-16T12:44:33;20.90;1.00
7214;DHT22;3648;50.614;13.830;2022-10-16T12:47:01;21.00;1.00
7214;DHT22;3648;50.614;13.830;2022-10-16T12:49:36;21.00;1.00
7214;DHT22;3648;50.614;13.830;2022-10-16T12:54:47;21.00;1.00
7214;DHT22;3648;50.614;13.830;2022-10-16T12:57:30;21.00;1.00
7214;DHT22;3648;50.614;13.830;2022-10-16T13:00:04;21.00;1.00
7214;DHT22;3648;50.614;13.830;2022-10-16T13:02:54;21.00;1.00
7214;DHT22;3648;50.614;13.830;2022-10-16T13:05:37;21.00;1.00
7214;DHT22;3648;50.614;13.830;2022-10-16T13:08:17;21.00;1.00
7214;DHT22;3648;50.614;13.830;2022-10-16T13:10:58;21.00;1.00
7214;DHT22;3648;50.614;13.830;2022-10-16T13:13:57;21.00;1.00
7214;DHT22;3648;50.614;13.830;2022-10-16T13:16:35;21.00;1.00
7214;DHT22;3648;50.614;13.830;2022-10-16T13:19:14;21.10;1.00
7214;DHT22;3648;50.614;13.830;2022-10-16T13:21:51;21.20;1.00
7214;DHT22;3648;50.614;13.830;2022-10-16T13:24:46;21.30;1.00
7214;DHT22;3648;50.614;13.830;2022-10-16T13:27:23;21.50;1.00
7214;DHT22;3648;50.614;13.830;2022-10-16T13:30:01;21.50;1.00
7214;DHT22;3648;50.614;13.830;2022-10-16T13:32:29;21.60;1.00
7214;DHT22;3648;50.614;13.830;2022-10-16T13:34:56;21.60;1.00
7214;DHT22;3648;50.614;13.830;2022-10-16T13:37:25;21.50;1.00
7214;DHT22;3648;50.614;13.830;2022-10-16T13:40:04;21.50;1.00
7214;DHT22;3648;50.614;13.830;2022-10-16T13:42:34;21.50;1.00
7214;DHT22;3648;50.614;13.830;2022-10-16T13:45:01;21.50;1.00
7214;DHT22;3648;50.614;13.830;2022-10-16T13:47:29;21.50;1.00
7214;DHT22;3648;50.614;13.830;2022-10-16T13:50:00;21.50;1.00
7214;DHT22;3648;50.614;13.830;2022-10-16T13:52:29;21.40;1.00
7214;DHT22;3648;50.614;13.830;2022-10-16T13:54:56;21.30;1.00
7214;DHT22;3648;50.614;13.830;2022-10-16T13:57:24;21.20;1.00
7214;DHT22;3648;50.614;13.830;2022-10-16T13:59:52;21.20;1.00
7214;DHT22;3648;50.614;13.830;2022-10-16T14:02:25;21.20;1.00
7214;DHT22;3648;50.614;13.830;2022-10-16T14:04:54;21.10;1.00
7214;DHT22;3648;50.614;13.830;2022-10-16T14:07:24;21.10;1.00
7214;DHT22;3648;50.614;13.830;2022-10-16T14:09:54;21.10;1.00
7214;DHT22;3648;50.614;13.830;2022-10-16T14:12:22;21.10;1.00
7214;DHT22;3648;50.614;13.830;2022-10-16T14:14:52;21.10;1.00
7214;DHT22;3648;50.614;13.830;2022-10-16T14:17:23;21.10;1.00
7214;DHT22;3648;50.614;13.830;2022-10-16T14:19:53;21.00;1.00
7214;DHT22;3648;50.614;13.830;2022-10-16T14:22:30;21.00;1.00
7214;DHT22;3648;50.614;13.830;2022-10-16T14:25:00;21.00;1.00
7214;DHT22;3648;50.614;13.830;2022-10-16T14:27:32;21.00;1.00
7214;DHT22;3648;50.614;13.830;2022-10-16T14:30:14;21.00;1.00
7214;DHT22;3648;50.614;13.830;2022-10-16T14:32:42;20.90;1.00
7214;DHT22;3648;50.614;13.830;2022-10-16T14:35:28;20.90;1.00
7214;DHT22;3648;50.614;13.830;2022-10-16T14:37:56;21.00;1.00
7214;DHT22;3648;50.614;13.830;2022-10-16T14:40:27;20.90;1.00
7214;DHT22;3648;50.614;13.830;2022-10-16T14:42:55;20.90;1.00
7214;DHT22;3648;50.614;13.830;2022-10-16T14:45:25;20.90;1.00
7214;DHT22;3648;50.614;13.830;2022-10-16T14:47:54;20.90;1.00
7214;DHT22;3648;50.614;13.830;2022-10-16T14:50:22;20.80;1.00
7214;DHT22;3648;50.614;13.830;2022-10-16T14:52:49;20.70;1.00
7214;DHT22;3648;50.614;13.830;2022-10-16T14:55:17;20.70;1.00
7214;DHT22;3648;50.614;13.830;2022-10-16T14:57:46;20.60;1.00
7214;DHT22;3648;50.614;13.830;2022-10-16T15:00:18;20.60;1.00
7214;DHT22;3648;50.614;13.830;2022-10-16T15:02:45;20.50;1.00
7214;DHT22;3648;50.614;13.830;2022-10-16T15:05:16;20.50;1.00
7214;DHT22;3648;50.614;13.830;2022-10-16T15:07:44;20.40;1.00
7214;DHT22;3648;50.614;13.830;2022-10-16T15:10:12;20.40;1.00
7214;DHT22;3648;50.614;13.830;2022-10-16T15:12:39;20.30;1.00
7214;DHT22;3648;50.614;13.830;2022-10-16T15:15:27;20.20;1.00
7214;DHT22;3648;50.614;13.830;2022-10-16T15:17:57;20.20;1.00
7214;DHT22;3648;50.614;13.830;2022-10-16T15:20:27;20.10;1.00
7214;DHT22;3648;50.614;13.830;2022-10-16T15:22:54;20.00;1.00
7214;DHT22;3648;50.614;13.830;2022-10-16T15:25:34;20.00;1.00
7214;DHT22;3648;50.614;13.830;2022-10-16T15:28:03;19.90;1.00
7214;DHT22;3648;50.614;13.830;2022-10-16T15:30:31;19.90;1.00
7214;DHT22;3648;50.614;13.830;2022-10-16T15:32:58;19.90;1.00
7214;DHT22;3648;50.614;13.830;2022-10-16T15:35:25;19.90;1.00
7214;DHT22;3648;50.614;13.830;2022-10-16T15:37:53;19.90;1.00
7214;DHT22;3648;50.614;13.830;2022-10-16T15:40:21;19.80;1.00
7214;DHT22;3648;50.614;13.830;2022-10-16T15:42:48;19.70;1.00
7214;DHT22;3648;50.614;13.830;2022-10-16T15:45:16;19.70;1.00
7214;DHT22;3648;50.614;13.830;2022-10-16T15:47:46;19.70;1.00
7214;DHT22;3648;50.614;13.830;2022-10-16T15:50:14;19.60;1.00
7214;DHT22;3648;50.614;13.830;2022-10-16T15:52:42;19.60;1.00
7214;DHT22;3648;50.614;13.830;2022-10-16T15:55:11;19.50;1.00
7214;DHT22;3648;50.614;13.830;2022-10-16T15:57:39;19.40;1.00
7214;DHT22;3648;50.614;13.830;2022-10-16T16:00:10;19.40;1.00
7214;DHT22;3648;50.614;13.830;2022-10-16T16:02:38;19.40;1.00
7214;DHT22;3648;50.614;13.830;2022-10-16T16:05:08;19.30;1.00
7214;DHT22;3648;50.614;13.830;2022-10-16T16:07:37;19.20;1.00
7214;DHT22;3648;50.614;13.830;2022-10-16T16:10:07;19.20;1.00
7214;DHT22;3648;50.614;13.830;2022-10-16T16:12:34;19.10;1.00
7214;DHT22;3648;50.614;13.830;2022-10-16T16:15:03;19.00;1.00
7214;DHT22;3648;50.614;13.830;2022-10-16T16:17:31;18.90;1.00
7214;DHT22;3648;50.614;13.830;2022-10-16T16:19:59;18.90;1.00
7214;DHT22;3648;50.614;13.830;2022-10-16T16:22:28;18.70;1.00
7214;DHT22;3648;50.614;13.830;2022-10-16T16:24:55;18.60;1.00
7214;DHT22;3648;50.614;13.830;2022-10-16T16:27:24;18.50;1.00
7214;DHT22;3648;50.614;13.830;2022-10-16T16:29:51;18.50;1.00
7214;DHT22;3648;50.614;13.830;2022-10-16T16:32:21;18.40;1.00